aviador You're here:

KIFA Decoded Metar

in _UNIDENTIFIED
Report Time2018-05-26 15:35:00
UTC Time2018-05-26 15:47:47
Flight Rules vfr VFR
Wind210° at 04 kt
W.Decomp.*RWY 13: 0.8 kt HW 3.9 kt RCW
W.Rank210° ranks 19
Current wind is below 210° avg. (9.1)
Visibility9999 m
Phenomena:N/A
Clouds:N/A
Expected CloudBase > 2,800 ft AGL from Temp-Dew spread
CeilingNone
Temp28°C (ISA +15)
Dew Point21°C (66% RH)
Heat Index30.2°C
QNH1009 hPa
Density Alt3,360 ft
Elevation1,138 ft
Report Wrong Elevation
Raw Report
KIFA 261535Z AUTO 21004KT 10SM CLR 28/21 A2979 RMK AO2
T02790211=

Extra information for KIFA:More info

Metar Taf Metar & Taf Last 4 Metars F.Rules Stats Wind Profile Meteogram Temp Stats Metar ALERT Operation Metar Decoded Social comments